createdAt,value
2023-10-20T00:00:17.130Z,12.73
2023-10-20T00:02:47.202Z,13.90
2023-10-20T00:05:16.307Z,8.07
2023-10-20T00:07:44.408Z,10.02
2023-10-20T00:10:12.981Z,13.20
2023-10-20T00:12:41.661Z,14.13
2023-10-20T00:15:15.558Z,10.05
2023-10-20T00:17:44.616Z,9.07
2023-10-20T00:20:14.717Z,13.43
2023-10-20T00:22:43.904Z,9.75
2023-10-20T00:25:13.647Z,13.68
2023-10-20T00:27:42.761Z,12.48
2023-10-20T00:30:13.053Z,8.18
2023-10-20T00:32:42.573Z,10.68
2023-10-20T00:35:14.842Z,18.02
2023-10-20T00:37:44.913Z,13.30
2023-10-20T00:40:14.000Z,20.75
2023-10-20T00:42:42.457Z,7.82
2023-10-20T00:45:12.433Z,15.45
2023-10-20T00:47:42.278Z,10.60
2023-10-20T00:50:13.322Z,14.02
2023-10-20T00:52:46.414Z,5.60
2023-10-20T00:55:16.260Z,11.05
2023-10-20T00:57:46.165Z,19.58
2023-10-20T01:00:15.410Z,14.38
2023-10-20T01:02:43.991Z,11.85
2023-10-20T01:05:16.256Z,5.53
2023-10-20T01:07:45.885Z,7.78
2023-10-20T01:10:15.000Z,15.25
2023-10-20T01:12:43.583Z,13.88
2023-10-20T01:15:16.033Z,10.15
2023-10-20T01:17:45.287Z,15.82
2023-10-20T01:20:14.344Z,19.60
2023-10-20T01:22:43.232Z,13.98
2023-10-20T01:25:13.636Z,12.40
2023-10-20T01:27:42.027Z,15.00
2023-10-20T01:30:12.179Z,12.07
2023-10-20T01:32:42.358Z,17.13
2023-10-20T01:35:11.683Z,13.20
2023-10-20T01:37:40.042Z,11.57
2023-10-20T01:40:11.101Z,18.73
2023-10-20T01:42:40.739Z,11.80
2023-10-20T01:45:10.746Z,9.35
2023-10-20T01:47:39.377Z,15.15
2023-10-20T01:50:08.378Z,20.45
2023-10-20T01:52:36.480Z,10.75
2023-10-20T01:55:04.733Z,10.55
2023-10-20T01:57:32.973Z,11.13
2023-10-20T02:00:03.640Z,11.90
2023-10-20T02:02:31.856Z,8.65
2023-10-20T02:05:00.217Z,15.57
2023-10-20T02:07:28.761Z,10.45
2023-10-20T02:09:57.415Z,9.13
2023-10-20T02:12:25.560Z,17.98
2023-10-20T02:14:54.036Z,10.77
2023-10-20T02:17:23.595Z,16.95
2023-10-20T02:19:52.014Z,9.30
2023-10-20T02:22:20.121Z,10.95
2023-10-20T02:24:48.264Z,14.60
2023-10-20T02:27:16.377Z,7.85
2023-10-20T02:29:44.593Z,6.90
2023-10-20T02:32:13.857Z,11.05
2023-10-20T02:34:43.494Z,15.07
2023-10-20T02:37:13.460Z,21.90
2023-10-20T02:39:42.355Z,13.88
2023-10-20T02:42:10.527Z,9.70
2023-10-20T02:44:40.020Z,10.15
2023-10-20T02:47:08.306Z,8.77
2023-10-20T02:49:36.579Z,15.07
2023-10-20T02:52:06.412Z,12.50
2023-10-20T02:54:35.522Z,17.38
2023-10-20T02:57:07.601Z,13.50
2023-10-20T02:59:35.791Z,12.85
2023-10-20T03:02:04.801Z,7.50
2023-10-20T03:04:33.512Z,16.48
2023-10-20T03:07:02.179Z,14.60
2023-10-20T03:09:31.788Z,13.35
2023-10-20T03:12:00.003Z,8.95
2023-10-20T03:14:28.201Z,7.68
2023-10-20T03:16:56.499Z,12.77
2023-10-20T03:19:25.352Z,8.18
2023-10-20T03:21:53.690Z,15.23
2023-10-20T03:24:21.846Z,17.15
2023-10-20T03:26:51.555Z,17.63
2023-10-20T03:29:20.076Z,7.57
2023-10-20T03:31:48.793Z,8.65
2023-10-20T03:34:17.089Z,9.85
2023-10-20T03:36:45.222Z,14.43
2023-10-20T03:39:21.481Z,8.40
2023-10-20T03:41:51.888Z,13.57
2023-10-20T03:44:22.786Z,9.60
2023-10-20T03:46:51.309Z,13.15
2023-10-20T03:49:20.347Z,8.02
2023-10-20T03:51:51.006Z,11.98
2023-10-20T03:54:20.279Z,11.05
2023-10-20T03:56:48.533Z,7.82
2023-10-20T03:59:19.050Z,10.27
2023-10-20T04:01:47.307Z,8.03
2023-10-20T04:04:15.648Z,7.07
2023-10-20T04:06:45.438Z,10.25
2023-10-20T04:09:14.177Z,6.40
2023-10-20T04:11:42.356Z,8.85
2023-10-20T04:14:10.669Z,11.07
2023-10-20T04:16:42.780Z,8.95
2023-10-20T04:19:14.258Z,3.83
2023-10-20T04:21:44.617Z,12.88
2023-10-20T04:24:13.218Z,10.02
2023-10-20T04:26:43.136Z,10.35
2023-10-20T04:29:25.193Z,6.93
2023-10-20T04:32:12.656Z,18.27
2023-10-20T04:34:58.162Z,9.40
2023-10-20T04:37:43.925Z,13.05
2023-10-20T04:40:30.365Z,11.88
2023-10-20T04:43:27.291Z,10.55
2023-10-20T04:46:16.706Z,8.98
2023-10-20T04:49:03.717Z,8.98
2023-10-20T04:51:51.812Z,16.13
2023-10-20T04:54:23.604Z,12.18
2023-10-20T04:57:05.643Z,10.35
2023-10-20T04:59:33.872Z,10.68
2023-10-20T05:02:08.634Z,12.60
2023-10-20T05:04:43.955Z,12.38
2023-10-20T05:07:12.341Z,13.68
2023-10-20T05:09:45.132Z,11.43
2023-10-20T05:12:13.721Z,6.03
2023-10-20T05:14:41.896Z,12.32
2023-10-20T05:17:12.386Z,7.35
2023-10-20T05:19:41.946Z,7.47
2023-10-20T05:22:10.860Z,10.25
2023-10-20T05:24:39.014Z,8.85
2023-10-20T05:27:07.106Z,10.02
2023-10-20T05:29:35.293Z,12.68
2023-10-20T05:32:07.779Z,13.55
2023-10-20T05:34:36.623Z,13.85
2023-10-20T05:37:06.621Z,8.70
2023-10-20T05:39:34.899Z,9.40
2023-10-20T05:42:05.841Z,8.23
2023-10-20T05:44:34.229Z,13.63
2023-10-20T05:47:02.646Z,16.00
2023-10-20T05:49:30.718Z,15.05
2023-10-20T05:51:58.938Z,12.88
2023-10-20T05:54:29.964Z,14.32
2023-10-20T05:56:58.088Z,11.40
2023-10-20T05:59:26.989Z,15.18
2023-10-20T06:01:55.315Z,12.45
2023-10-20T06:04:23.503Z,23.77
2023-10-20T06:06:51.636Z,15.65
2023-10-20T06:09:20.963Z,9.25
2023-10-20T06:11:50.523Z,13.70
2023-10-20T06:14:18.782Z,15.70
2023-10-20T06:16:46.918Z,11.48
2023-10-20T06:19:15.025Z,23.48
2023-10-20T06:21:43.680Z,10.70
2023-10-20T06:24:12.126Z,15.82
2023-10-20T06:26:40.394Z,16.58
2023-10-20T06:29:27.352Z,9.20
2023-10-20T06:31:59.366Z,16.40
2023-10-20T06:34:28.512Z,23.08
2023-10-20T06:37:02.504Z,19.27
2023-10-20T06:39:32.164Z,10.50
2023-10-20T06:42:00.587Z,12.20
2023-10-20T06:44:30.395Z,10.27
2023-10-20T06:46:58.791Z,26.02
2023-10-20T06:49:26.921Z,17.15
2023-10-20T06:51:55.094Z,18.20
2023-10-20T06:54:23.385Z,16.23
2023-10-20T06:56:52.181Z,16.05
2023-10-20T06:59:21.692Z,14.07
2023-10-20T07:01:52.410Z,14.07
2023-10-20T07:04:20.701Z,13.98
2023-10-20T07:06:50.390Z,17.88
2023-10-20T07:09:19.707Z,13.48
2023-10-20T07:11:49.549Z,17.92
2023-10-20T07:14:18.044Z,17.83
2023-10-20T07:16:46.383Z,16.25
2023-10-20T07:19:15.883Z,13.07
2023-10-20T07:21:44.174Z,17.23
2023-10-20T07:24:12.376Z,17.27
2023-10-20T07:26:40.568Z,21.02
2023-10-20T07:29:09.309Z,18.88
2023-10-20T07:31:40.823Z,24.17
2023-10-20T07:36:42.050Z,18.40
2023-10-20T07:39:10.837Z,24.50
2023-10-20T07:41:39.065Z,28.20
2023-10-20T07:44:07.577Z,21.17
2023-10-20T07:46:35.725Z,21.85
2023-10-20T07:49:04.398Z,18.45
2023-10-20T07:51:32.555Z,22.95
2023-10-20T07:54:02.096Z,21.15
2023-10-20T07:56:30.258Z,23.02
2023-10-20T07:58:58.456Z,25.17
2023-10-20T08:01:26.698Z,28.48
2023-10-20T08:03:55.006Z,21.23
2023-10-20T08:06:24.859Z,26.38
2023-10-20T08:08:53.820Z,19.58
2023-10-20T08:11:23.600Z,24.10
2023-10-20T08:13:52.863Z,31.67
2023-10-20T08:16:22.859Z,23.17
2023-10-20T08:18:52.462Z,17.05
2023-10-20T08:21:20.774Z,14.05
2023-10-20T08:23:49.106Z,22.15
2023-10-20T08:26:20.640Z,24.80
2023-10-20T08:28:51.339Z,17.52
2023-10-20T08:31:20.115Z,19.15
2023-10-20T08:33:49.831Z,16.23
2023-10-20T08:36:21.600Z,18.48
2023-10-20T08:38:51.128Z,14.05
2023-10-20T08:41:21.031Z,14.98
2023-10-20T08:43:51.121Z,20.20
2023-10-20T08:46:20.796Z,20.50
2023-10-20T08:48:50.179Z,21.13
2023-10-20T08:51:19.767Z,9.77
2023-10-20T08:53:48.322Z,20.92
2023-10-20T08:56:16.592Z,17.75
2023-10-20T08:58:47.278Z,18.08
2023-10-20T09:01:18.136Z,12.73
2023-10-20T09:03:47.731Z,13.50
2023-10-20T09:06:17.226Z,14.88
2023-10-20T09:08:48.746Z,11.18
2023-10-20T09:11:17.076Z,9.38
2023-10-20T09:13:47.685Z,10.93
2023-10-20T09:16:17.830Z,7.30
2023-10-20T09:18:48.199Z,14.38
2023-10-20T09:21:18.042Z,12.05
2023-10-20T09:23:56.597Z,7.85
2023-10-20T09:26:26.185Z,8.40
2023-10-20T09:28:56.029Z,9.75
2023-10-20T09:31:28.566Z,11.10
2023-10-20T09:33:57.221Z,12.88
2023-10-20T09:36:25.487Z,7.78
2023-10-20T09:38:54.948Z,12.52
2023-10-20T09:41:25.138Z,10.90
2023-10-20T09:43:55.287Z,11.15
2023-10-20T09:46:39.452Z,8.05
2023-10-20T09:49:15.876Z,11.18
2023-10-20T09:51:47.123Z,9.35
2023-10-20T09:54:16.977Z,13.27
2023-10-20T09:56:46.800Z,15.15
2023-10-20T09:59:21.596Z,9.27
2023-10-20T10:01:51.452Z,10.00
2023-10-20T10:04:27.090Z,15.30
2023-10-20T10:06:55.197Z,14.88
2023-10-20T10:09:23.451Z,8.05
2023-10-20T10:11:57.446Z,8.93
2023-10-20T10:14:26.910Z,8.30
2023-10-20T10:17:00.280Z,8.52
2023-10-20T10:19:30.241Z,15.90
2023-10-20T10:21:59.393Z,10.15
2023-10-20T10:24:27.852Z,9.77
2023-10-20T10:26:58.281Z,10.63
2023-10-20T10:29:49.745Z,13.63
2023-10-20T10:32:20.867Z,14.43
2023-10-20T10:37:30.499Z,27.08
2023-10-20T10:40:11.739Z,12.98
2023-10-20T10:42:42.400Z,13.95
2023-10-20T10:45:24.517Z,12.27
2023-10-20T10:48:07.050Z,15.18
2023-10-20T10:50:37.964Z,19.35
2023-10-20T10:53:06.767Z,16.33
2023-10-20T10:55:37.118Z,27.77
2023-10-20T10:58:07.389Z,18.00
2023-10-20T11:00:36.235Z,16.25
2023-10-20T11:03:07.552Z,35.67
2023-10-20T11:05:36.342Z,14.55
2023-10-20T11:08:06.311Z,10.80
2023-10-20T11:10:37.497Z,20.33
2023-10-20T11:13:08.278Z,17.15
2023-10-20T11:15:37.029Z,14.70
2023-10-20T11:18:08.471Z,23.70
2023-10-20T11:20:39.358Z,21.27
2023-10-20T11:23:08.653Z,21.70
2023-10-20T11:25:38.347Z,20.05
2023-10-20T11:28:07.396Z,15.18
2023-10-20T11:30:39.889Z,16.48
2023-10-20T11:33:15.937Z,14.88
2023-10-20T11:35:45.728Z,14.93
2023-10-20T11:38:16.682Z,11.70
2023-10-20T11:40:48.875Z,16.25
2023-10-20T11:43:17.099Z,9.95
2023-10-20T11:45:46.007Z,26.30
2023-10-20T11:48:15.747Z,21.35
2023-10-20T11:50:44.155Z,17.85
2023-10-20T11:53:13.677Z,22.13
2023-10-20T11:55:42.350Z,19.90
2023-10-20T11:58:10.781Z,26.20
2023-10-20T12:00:42.901Z,28.65
2023-10-20T12:03:11.283Z,24.42
2023-10-20T12:05:41.356Z,34.28
2023-10-20T12:08:10.351Z,21.65
2023-10-20T12:10:39.713Z,24.17
2023-10-20T12:13:08.087Z,21.77
2023-10-20T12:15:37.561Z,22.27
2023-10-20T12:18:07.389Z,32.88
2023-10-20T12:20:35.778Z,28.27
2023-10-20T12:23:07.384Z,31.20
2023-10-20T12:25:35.735Z,32.90
2023-10-20T12:28:03.888Z,37.25
2023-10-20T12:30:32.257Z,44.08
2023-10-20T12:35:29.301Z,26.75
2023-10-20T12:37:57.507Z,26.85
2023-10-20T12:40:27.500Z,22.02
2023-10-20T12:42:56.196Z,23.70
2023-10-20T12:45:24.792Z,15.43
2023-10-20T12:47:55.966Z,25.33
2023-10-20T12:50:24.178Z,26.23
2023-10-20T12:52:52.750Z,27.45
2023-10-20T12:55:21.031Z,30.83
2023-10-20T12:57:51.040Z,27.48
2023-10-20T13:00:20.718Z,29.00
2023-10-20T13:02:51.345Z,24.85
2023-10-20T13:05:19.863Z,16.77
2023-10-20T13:07:48.002Z,25.25
2023-10-20T13:10:16.108Z,25.00
2023-10-20T13:12:44.410Z,26.52
2023-10-20T13:15:14.883Z,25.50
2023-10-20T13:17:43.334Z,21.17
2023-10-20T13:20:13.983Z,34.63
2023-10-20T13:22:42.560Z,24.23
2023-10-20T13:25:13.986Z,28.63
2023-10-20T13:27:43.538Z,25.30
2023-10-20T13:30:14.488Z,31.02
2023-10-20T13:32:42.733Z,21.50
2023-10-20T13:35:11.162Z,18.92
2023-10-20T13:37:40.961Z,21.38
2023-10-20T13:40:12.014Z,26.80
2023-10-20T13:42:41.313Z,21.05
2023-10-20T13:45:10.191Z,26.83
2023-10-20T13:47:39.996Z,25.60
2023-10-20T13:50:10.162Z,19.00
2023-10-20T13:52:38.712Z,33.25
2023-10-20T13:55:08.148Z,17.33
2023-10-20T13:57:36.382Z,20.92
2023-10-20T14:00:07.929Z,17.13
2023-10-20T14:02:36.283Z,26.20
2023-10-20T14:05:08.941Z,23.70
2023-10-20T14:07:37.973Z,30.17
2023-10-20T14:10:07.345Z,17.25
2023-10-20T14:12:35.615Z,20.13
2023-10-20T14:15:04.621Z,22.73
2023-10-20T14:17:33.664Z,40.50
2023-10-20T14:20:01.875Z,26.90
2023-10-20T14:22:31.804Z,28.25
2023-10-20T14:25:00.067Z,38.03
2023-10-20T14:27:28.353Z,34.13
2023-10-20T14:29:56.686Z,35.20
2023-10-20T14:32:24.975Z,32.28
2023-10-20T14:34:53.163Z,26.45
2023-10-20T14:37:21.419Z,33.67
2023-10-20T14:39:50.966Z,28.85
2023-10-20T14:42:19.251Z,44.35
2023-10-20T14:44:47.487Z,24.17
2023-10-20T14:47:15.768Z,30.90
2023-10-20T14:49:44.067Z,34.05
2023-10-20T14:52:13.513Z,31.55
2023-10-20T14:54:42.265Z,30.95
2023-10-20T14:57:12.021Z,46.55
2023-10-20T14:59:40.388Z,35.60
2023-10-20T15:02:09.040Z,27.25
2023-10-20T15:04:37.335Z,29.67
2023-10-20T15:07:06.312Z,27.80
2023-10-20T15:09:35.259Z,23.17
2023-10-20T15:12:03.666Z,27.38
2023-10-20T15:14:34.057Z,23.05
2023-10-20T15:17:02.310Z,35.65
2023-10-20T15:19:30.724Z,35.25
2023-10-20T15:21:59.031Z,35.40
2023-10-20T15:24:27.269Z,23.33
2023-10-20T15:29:26.158Z,31.40
2023-10-20T15:31:55.771Z,28.58
2023-10-20T15:34:24.931Z,23.00
2023-10-20T15:36:53.115Z,29.00
2023-10-20T15:39:35.888Z,33.20
2023-10-20T15:42:11.920Z,21.77
2023-10-20T15:44:40.138Z,36.90
2023-10-20T15:47:10.584Z,24.48
2023-10-20T15:49:38.793Z,22.52
2023-10-20T15:52:07.481Z,37.25
2023-10-20T15:54:36.485Z,37.70
2023-10-20T15:57:04.816Z,26.10
2023-10-20T15:59:33.178Z,32.05
2023-10-20T16:02:01.635Z,17.02
2023-10-20T16:04:31.259Z,21.33
2023-10-20T16:06:59.419Z,25.15
2023-10-20T16:09:27.707Z,27.08
2023-10-20T16:11:55.998Z,27.80
2023-10-20T16:14:24.181Z,27.55
2023-10-20T16:16:52.311Z,27.85
2023-10-20T16:19:20.902Z,24.63
2023-10-20T16:21:51.681Z,25.05
2023-10-20T16:24:19.963Z,29.85
2023-10-20T16:26:48.774Z,26.10
2023-10-20T16:29:16.954Z,32.90
2023-10-20T16:31:45.208Z,13.52
2023-10-20T16:34:13.679Z,20.25
2023-10-20T16:36:41.821Z,18.45
2023-10-20T16:39:13.745Z,19.73
2023-10-20T16:41:43.044Z,19.92
2023-10-20T16:44:11.299Z,32.00
2023-10-20T16:46:41.220Z,15.10
2023-10-20T16:49:09.564Z,12.18
2023-10-20T16:51:39.373Z,13.75
2023-10-20T16:54:07.959Z,16.58
2023-10-20T16:56:38.215Z,21.52
2023-10-20T16:59:06.658Z,30.60
2023-10-20T17:01:35.222Z,14.98
2023-10-20T17:04:03.970Z,15.13
2023-10-20T17:06:32.490Z,5.82
2023-10-20T17:09:00.796Z,0.08
2023-10-20T17:11:29.116Z,0.00
2023-10-20T17:14:00.577Z,0.10
2023-10-20T17:16:28.926Z,4.78
2023-10-20T17:18:57.960Z,0.00
2023-10-20T17:21:26.107Z,0.20
2023-10-20T17:23:54.311Z,0.30
2023-10-20T17:26:22.805Z,0.00
2023-10-20T17:28:51.508Z,2.83
2023-10-20T17:31:21.609Z,0.80
2023-10-20T17:33:49.981Z,0.35
2023-10-20T17:36:18.258Z,0.10
2023-10-20T17:38:46.601Z,2.53
2023-10-20T17:41:16.303Z,0.10
2023-10-20T17:43:44.618Z,8.93
2023-10-20T17:46:13.280Z,0.25
2023-10-20T17:48:43.602Z,0.10
2023-10-20T17:51:12.328Z,0.10
2023-10-20T17:53:42.093Z,0.20
2023-10-20T17:56:10.661Z,0.88
2023-10-20T17:58:38.964Z,0.57
2023-10-20T18:01:09.475Z,0.20
2023-10-20T18:03:39.238Z,0.10
2023-10-20T18:06:14.333Z,0.10
2023-10-20T18:08:45.718Z,0.10
2023-10-20T18:11:16.635Z,1.15
2023-10-20T18:13:46.688Z,0.10
2023-10-20T18:16:17.064Z,0.32
2023-10-20T18:18:47.073Z,6.35
2023-10-20T18:21:17.384Z,0.20
2023-10-20T18:23:45.570Z,2.30
2023-10-20T18:26:14.518Z,0.10
2023-10-20T18:28:43.194Z,0.35
2023-10-20T18:31:12.826Z,7.82
2023-10-20T18:33:41.619Z,0.30
2023-10-20T18:36:10.267Z,0.00
2023-10-20T18:38:40.156Z,0.10
2023-10-20T18:41:15.063Z,0.10
2023-10-20T18:43:43.340Z,0.10
2023-10-20T18:46:11.941Z,0.00
2023-10-20T18:48:40.539Z,0.93
2023-10-20T18:51:10.419Z,1.70
2023-10-20T18:53:40.687Z,6.38
2023-10-20T18:56:09.643Z,0.03
2023-10-20T18:58:38.124Z,1.48
2023-10-20T19:01:06.495Z,0.03
2023-10-20T19:03:35.204Z,0.52
2023-10-20T19:06:04.308Z,0.40
2023-10-20T19:08:32.709Z,0.20
2023-10-20T19:11:05.786Z,0.20
2023-10-20T19:13:35.167Z,0.63
2023-10-20T19:16:04.680Z,0.10
2023-10-20T19:18:33.187Z,0.00
2023-10-20T19:21:02.101Z,7.78
2023-10-20T19:23:30.827Z,0.10
2023-10-20T19:26:05.480Z,5.32
2023-10-20T19:28:33.611Z,0.73
2023-10-20T19:31:02.763Z,1.35
2023-10-20T19:33:32.009Z,8.05
2023-10-20T19:36:00.831Z,0.63
2023-10-20T19:38:29.136Z,0.10
2023-10-20T19:40:57.241Z,1.90
2023-10-20T19:43:27.298Z,0.70
2023-10-20T19:45:56.309Z,1.35
2023-10-20T19:48:24.816Z,0.20
2023-10-20T19:50:53.355Z,0.30
2023-10-20T19:53:22.118Z,0.20
2023-10-20T19:55:50.361Z,3.20
2023-10-20T19:58:18.821Z,0.13
2023-10-20T20:00:48.365Z,0.93
2023-10-20T20:03:17.343Z,0.03
2023-10-20T20:05:45.576Z,0.10
2023-10-20T20:08:14.069Z,0.05
2023-10-20T20:10:42.340Z,0.10
2023-10-20T20:13:10.488Z,0.15
2023-10-20T20:15:38.627Z,1.23
2023-10-20T20:18:08.870Z,0.20
2023-10-20T20:20:37.334Z,0.65
2023-10-20T20:23:05.834Z,0.35
2023-10-20T20:25:34.176Z,0.20
2023-10-20T20:28:02.319Z,1.20
2023-10-20T20:30:30.456Z,8.63
2023-10-20T20:32:58.910Z,3.78
2023-10-20T20:35:28.691Z,1.65
2023-10-20T20:37:57.779Z,0.20
2023-10-20T20:40:26.446Z,1.55
2023-10-20T20:42:53.706Z,0.00
2023-10-20T20:45:22.129Z,0.65
2023-10-20T20:47:50.358Z,4.80
2023-10-20T20:50:29.802Z,1.20
2023-10-20T20:53:03.265Z,0.00
2023-10-20T20:55:33.087Z,4.28
2023-10-20T20:58:01.436Z,0.00
2023-10-20T21:00:30.304Z,1.38
2023-10-20T21:02:58.782Z,0.10
2023-10-20T21:05:27.119Z,0.20
2023-10-20T21:07:55.266Z,0.13
2023-10-20T21:10:24.812Z,0.57
2023-10-20T21:12:53.070Z,0.57
2023-10-20T21:15:21.209Z,1.75
2023-10-20T21:17:49.861Z,0.30
2023-10-20T21:20:18.265Z,6.72
2023-10-20T21:22:46.364Z,0.00
2023-10-20T21:25:14.595Z,1.10
2023-10-20T21:27:44.257Z,3.92
2023-10-20T21:30:13.280Z,0.38
2023-10-20T21:32:41.501Z,0.47
2023-10-20T21:35:10.179Z,0.17
2023-10-20T21:37:38.414Z,0.55
2023-10-20T21:40:08.483Z,0.10
2023-10-20T21:42:38.657Z,2.20
2023-10-20T21:45:09.335Z,0.10
2023-10-20T21:47:37.533Z,0.27
2023-10-20T21:50:06.804Z,0.00
2023-10-20T21:52:34.893Z,4.25
2023-10-20T21:55:03.007Z,1.23
2023-10-20T21:57:31.119Z,0.63
2023-10-20T21:59:59.326Z,0.10
2023-10-20T22:02:28.990Z,0.43
2023-10-20T22:04:57.176Z,0.10
2023-10-20T22:07:25.395Z,0.00
2023-10-20T22:09:54.546Z,0.85
2023-10-20T22:12:23.214Z,0.57
2023-10-20T22:14:51.596Z,0.65
2023-10-20T22:17:19.834Z,3.83
2023-10-20T22:19:49.484Z,0.00
2023-10-20T22:22:17.704Z,0.55
2023-10-20T22:24:45.928Z,0.68
2023-10-20T22:27:14.147Z,0.40
2023-10-20T22:29:42.383Z,0.00
2023-10-20T22:32:10.885Z,0.68
2023-10-20T22:34:39.262Z,1.35
2023-10-20T22:37:09.074Z,0.13
2023-10-20T22:39:37.814Z,0.43
2023-10-20T22:42:08.594Z,0.38
2023-10-20T22:44:36.766Z,0.22
2023-10-20T22:47:05.470Z,0.03
2023-10-20T22:49:33.765Z,0.75
2023-10-20T22:52:01.962Z,0.05
2023-10-20T22:54:31.690Z,3.08
2023-10-20T22:56:59.889Z,0.43
2023-10-20T22:59:28.135Z,0.10
2023-10-20T23:01:56.296Z,3.08
2023-10-20T23:04:25.125Z,0.08
2023-10-20T23:06:53.978Z,0.10
2023-10-20T23:09:22.858Z,0.10
2023-10-20T23:11:52.486Z,0.10
2023-10-20T23:14:20.703Z,0.03
2023-10-20T23:16:48.863Z,0.28
2023-10-20T23:19:17.227Z,0.30
2023-10-20T23:21:45.440Z,0.15
2023-10-20T23:24:13.649Z,0.10
2023-10-20T23:26:42.038Z,0.10
2023-10-20T23:29:11.549Z,0.90
2023-10-20T23:31:39.617Z,0.17
2023-10-20T23:34:07.760Z,0.00
2023-10-20T23:36:35.836Z,0.10
2023-10-20T23:39:04.146Z,0.10
2023-10-20T23:41:32.365Z,0.30
2023-10-20T23:44:00.560Z,0.20
2023-10-20T23:46:30.046Z,3.72
2023-10-20T23:48:58.220Z,0.13
2023-10-20T23:51:26.393Z,14.52
2023-10-20T23:53:54.532Z,0.08
2023-10-20T23:56:22.783Z,0.30
2023-10-20T23:58:51.150Z,0.10
